sensor_id;sensor_type;location;lat;lon;timestamp;P1;durP1;ratioP1;P2;durP2;ratioP2
37943;SDS011;23767;42.024;23.086;2024-02-26T00:01:55;13.60;;;7.90;;
37943;SDS011;23767;42.024;23.086;2024-02-26T00:04:21;13.00;;;7.82;;
37943;SDS011;23767;42.024;23.086;2024-02-26T00:06:47;10.32;;;8.00;;
37943;SDS011;23767;42.024;23.086;2024-02-26T00:09:15;11.82;;;7.28;;
37943;SDS011;23767;42.024;23.086;2024-02-26T00:11:41;10.88;;;7.90;;
37943;SDS011;23767;42.024;23.086;2024-02-26T00:14:06;12.07;;;8.27;;
37943;SDS011;23767;42.024;23.086;2024-02-26T00:16:32;11.40;;;7.85;;
37943;SDS011;23767;42.024;23.086;2024-02-26T00:18:58;10.00;;;7.78;;
37943;SDS011;23767;42.024;23.086;2024-02-26T00:21:23;9.85;;;7.68;;
37943;SDS011;23767;42.024;23.086;2024-02-26T00:23:49;9.73;;;7.38;;
37943;SDS011;23767;42.024;23.086;2024-02-26T00:26:18;10.70;;;8.57;;
37943;SDS011;23767;42.024;23.086;2024-02-26T00:28:43;12.32;;;8.88;;
37943;SDS011;23767;42.024;23.086;2024-02-26T00:31:09;12.50;;;9.00;;
37943;SDS011;23767;42.024;23.086;2024-02-26T00:33:35;12.88;;;8.80;;
37943;SDS011;23767;42.024;23.086;2024-02-26T00:36:01;10.68;;;9.18;;
37943;SDS011;23767;42.024;23.086;2024-02-26T00:38:27;14.02;;;9.02;;
37943;SDS011;23767;42.024;23.086;2024-02-26T00:40:52;12.15;;;10.00;;
37943;SDS011;23767;42.024;23.086;2024-02-26T00:43:18;12.20;;;8.82;;
37943;SDS011;23767;42.024;23.086;2024-02-26T00:45:44;15.18;;;9.98;;
37943;SDS011;23767;42.024;23.086;2024-02-26T00:48:11;14.35;;;10.32;;
37943;SDS011;23767;42.024;23.086;2024-02-26T00:50:38;10.80;;;8.73;;
37943;SDS011;23767;42.024;23.086;2024-02-26T00:53:04;13.52;;;9.60;;
37943;SDS011;23767;42.024;23.086;2024-02-26T00:55:30;12.80;;;8.75;;
37943;SDS011;23767;42.024;23.086;2024-02-26T00:57:56;12.05;;;8.45;;
37943;SDS011;23767;42.024;23.086;2024-02-26T01:00:21;11.73;;;9.25;;
37943;SDS011;23767;42.024;23.086;2024-02-26T01:02:47;11.20;;;8.80;;
37943;SDS011;23767;42.024;23.086;2024-02-26T01:05:13;12.68;;;8.95;;
37943;SDS011;23767;42.024;23.086;2024-02-26T01:07:39;11.77;;;8.38;;
37943;SDS011;23767;42.024;23.086;2024-02-26T01:10:05;16.88;;;10.35;;
37943;SDS011;23767;42.024;23.086;2024-02-26T01:12:32;14.38;;;10.25;;
37943;SDS011;23767;42.024;23.086;2024-02-26T01:14:59;13.38;;;9.68;;
37943;SDS011;23767;42.024;23.086;2024-02-26T01:17:25;12.77;;;8.75;;
37943;SDS011;23767;42.024;23.086;2024-02-26T01:19:50;13.60;;;9.13;;
37943;SDS011;23767;42.024;23.086;2024-02-26T01:22:16;12.07;;;9.75;;
37943;SDS011;23767;42.024;23.086;2024-02-26T01:24:41;13.07;;;10.57;;
37943;SDS011;23767;42.024;23.086;2024-02-26T01:27:07;13.88;;;9.88;;
37943;SDS011;23767;42.024;23.086;2024-02-26T01:29:34;12.68;;;9.75;;
37943;SDS011;23767;42.024;23.086;2024-02-26T01:31:59;13.75;;;10.40;;
37943;SDS011;23767;42.024;23.086;2024-02-26T01:34:25;11.45;;;9.63;;
37943;SDS011;23767;42.024;23.086;2024-02-26T01:36:50;11.73;;;10.50;;
37943;SDS011;23767;42.024;23.086;2024-02-26T01:39:16;12.63;;;9.13;;
37943;SDS011;23767;42.024;23.086;2024-02-26T01:41:42;12.70;;;10.55;;
37943;SDS011;23767;42.024;23.086;2024-02-26T01:44:07;13.38;;;9.43;;
37943;SDS011;23767;42.024;23.086;2024-02-26T01:46:34;12.73;;;10.45;;
37943;SDS011;23767;42.024;23.086;2024-02-26T01:49:01;12.57;;;9.50;;
37943;SDS011;23767;42.024;23.086;2024-02-26T01:51:28;13.30;;;11.38;;
37943;SDS011;23767;42.024;23.086;2024-02-26T01:53:55;14.30;;;10.10;;
37943;SDS011;23767;42.024;23.086;2024-02-26T01:56:21;12.35;;;9.73;;
37943;SDS011;23767;42.024;23.086;2024-02-26T01:58:47;12.25;;;9.70;;
37943;SDS011;23767;42.024;23.086;2024-02-26T02:01:14;11.30;;;9.50;;
37943;SDS011;23767;42.024;23.086;2024-02-26T02:03:43;12.00;;;9.55;;
37943;SDS011;23767;42.024;23.086;2024-02-26T02:06:10;12.30;;;10.80;;
37943;SDS011;23767;42.024;23.086;2024-02-26T02:08:37;13.00;;;10.20;;
37943;SDS011;23767;42.024;23.086;2024-02-26T02:11:03;12.90;;;10.82;;
37943;SDS011;23767;42.024;23.086;2024-02-26T02:13:29;15.30;;;11.57;;
37943;SDS011;23767;42.024;23.086;2024-02-26T02:15:55;12.98;;;11.32;;
37943;SDS011;23767;42.024;23.086;2024-02-26T02:18:20;12.38;;;10.13;;
37943;SDS011;23767;42.024;23.086;2024-02-26T02:20:46;26.98;;;16.85;;
37943;SDS011;23767;42.024;23.086;2024-02-26T02:23:12;35.33;;;26.65;;
37943;SDS011;23767;42.024;23.086;2024-02-26T02:25:39;24.52;;;20.63;;
37943;SDS011;23767;42.024;23.086;2024-02-26T02:28:04;51.28;;;36.70;;
37943;SDS011;23767;42.024;23.086;2024-02-26T02:30:31;11.93;;;8.85;;
37943;SDS011;23767;42.024;23.086;2024-02-26T02:32:58;10.77;;;8.00;;
37943;SDS011;23767;42.024;23.086;2024-02-26T02:35:24;15.45;;;9.48;;
37943;SDS011;23767;42.024;23.086;2024-02-26T02:37:51;12.02;;;8.50;;
37943;SDS011;23767;42.024;23.086;2024-02-26T02:40:17;13.73;;;11.13;;
37943;SDS011;23767;42.024;23.086;2024-02-26T02:42:43;13.15;;;8.35;;
37943;SDS011;23767;42.024;23.086;2024-02-26T02:45:09;11.50;;;8.80;;
37943;SDS011;23767;42.024;23.086;2024-02-26T02:47:37;11.23;;;7.82;;
37943;SDS011;23767;42.024;23.086;2024-02-26T02:50:03;11.95;;;8.82;;
37943;SDS011;23767;42.024;23.086;2024-02-26T02:52:29;9.75;;;7.93;;
37943;SDS011;23767;42.024;23.086;2024-02-26T02:54:55;13.40;;;10.15;;
37943;SDS011;23767;42.024;23.086;2024-02-26T02:57:20;10.68;;;8.60;;
37943;SDS011;23767;42.024;23.086;2024-02-26T02:59:46;12.32;;;8.95;;
37943;SDS011;23767;42.024;23.086;2024-02-26T03:02:12;11.98;;;9.85;;
37943;SDS011;23767;42.024;23.086;2024-02-26T03:04:38;15.48;;;10.13;;
37943;SDS011;23767;42.024;23.086;2024-02-26T03:07:03;13.50;;;10.00;;
37943;SDS011;23767;42.024;23.086;2024-02-26T03:09:29;12.90;;;9.77;;
37943;SDS011;23767;42.024;23.086;2024-02-26T03:11:54;13.27;;;10.45;;
37943;SDS011;23767;42.024;23.086;2024-02-26T03:14:20;14.57;;;10.90;;
37943;SDS011;23767;42.024;23.086;2024-02-26T03:16:46;13.90;;;11.48;;
37943;SDS011;23767;42.024;23.086;2024-02-26T03:19:14;13.13;;;10.40;;
37943;SDS011;23767;42.024;23.086;2024-02-26T03:21:41;13.90;;;10.70;;
37943;SDS011;23767;42.024;23.086;2024-02-26T03:24:07;15.07;;;10.05;;
37943;SDS011;23767;42.024;23.086;2024-02-26T03:26:35;14.25;;;9.55;;
37943;SDS011;23767;42.024;23.086;2024-02-26T03:29:01;13.55;;;9.38;;
37943;SDS011;23767;42.024;23.086;2024-02-26T03:31:27;12.93;;;9.63;;
37943;SDS011;23767;42.024;23.086;2024-02-26T03:33:53;13.60;;;9.82;;
37943;SDS011;23767;42.024;23.086;2024-02-26T03:36:19;11.85;;;8.85;;
37943;SDS011;23767;42.024;23.086;2024-02-26T03:38:46;12.57;;;9.98;;
37943;SDS011;23767;42.024;23.086;2024-02-26T03:41:12;10.60;;;7.95;;
37943;SDS011;23767;42.024;23.086;2024-02-26T03:43:38;12.63;;;9.68;;
37943;SDS011;23767;42.024;23.086;2024-02-26T03:46:03;10.82;;;8.65;;
37943;SDS011;23767;42.024;23.086;2024-02-26T03:48:32;11.60;;;9.43;;
37943;SDS011;23767;42.024;23.086;2024-02-26T03:50:57;14.45;;;10.50;;
37943;SDS011;23767;42.024;23.086;2024-02-26T03:53:23;14.07;;;10.27;;
37943;SDS011;23767;42.024;23.086;2024-02-26T03:55:48;14.75;;;10.95;;
37943;SDS011;23767;42.024;23.086;2024-02-26T03:58:17;12.57;;;10.25;;
37943;SDS011;23767;42.024;23.086;2024-02-26T04:00:42;13.88;;;10.20;;
37943;SDS011;23767;42.024;23.086;2024-02-26T04:03:08;12.68;;;11.38;;
37943;SDS011;23767;42.024;23.086;2024-02-26T04:05:34;13.07;;;11.00;;
37943;SDS011;23767;42.024;23.086;2024-02-26T04:07:59;15.02;;;12.40;;
37943;SDS011;23767;42.024;23.086;2024-02-26T04:10:25;14.77;;;13.00;;
37943;SDS011;23767;42.024;23.086;2024-02-26T04:12:50;13.20;;;11.13;;
37943;SDS011;23767;42.024;23.086;2024-02-26T04:15:16;17.25;;;12.23;;
37943;SDS011;23767;42.024;23.086;2024-02-26T04:17:42;16.60;;;13.13;;
37943;SDS011;23767;42.024;23.086;2024-02-26T04:20:12;18.23;;;13.18;;
37943;SDS011;23767;42.024;23.086;2024-02-26T04:22:39;15.32;;;13.65;;
37943;SDS011;23767;42.024;23.086;2024-02-26T04:25:05;16.70;;;13.57;;
37943;SDS011;23767;42.024;23.086;2024-02-26T04:27:31;16.52;;;13.15;;
37943;SDS011;23767;42.024;23.086;2024-02-26T04:29:56;16.60;;;13.80;;
37943;SDS011;23767;42.024;23.086;2024-02-26T04:32:22;14.70;;;13.10;;
37943;SDS011;23767;42.024;23.086;2024-02-26T04:34:48;14.48;;;12.88;;
37943;SDS011;23767;42.024;23.086;2024-02-26T04:37:14;16.20;;;13.48;;
37943;SDS011;23767;42.024;23.086;2024-02-26T04:39:39;18.23;;;14.07;;
37943;SDS011;23767;42.024;23.086;2024-02-26T04:42:05;15.23;;;13.07;;
37943;SDS011;23767;42.024;23.086;2024-02-26T04:44:30;17.23;;;13.57;;
37943;SDS011;23767;42.024;23.086;2024-02-26T04:46:56;16.08;;;12.95;;
37943;SDS011;23767;42.024;23.086;2024-02-26T04:49:22;17.00;;;14.30;;
37943;SDS011;23767;42.024;23.086;2024-02-26T04:51:47;16.40;;;12.70;;
37943;SDS011;23767;42.024;23.086;2024-02-26T04:54:13;16.40;;;13.82;;
37943;SDS011;23767;42.024;23.086;2024-02-26T04:56:39;16.95;;;12.60;;
37943;SDS011;23767;42.024;23.086;2024-02-26T04:59:05;16.08;;;13.48;;
37943;SDS011;23767;42.024;23.086;2024-02-26T05:01:30;14.80;;;12.68;;
37943;SDS011;23767;42.024;23.086;2024-02-26T05:03:56;15.95;;;13.35;;
37943;SDS011;23767;42.024;23.086;2024-02-26T05:06:21;13.77;;;11.68;;
37943;SDS011;23767;42.024;23.086;2024-02-26T05:08:47;15.65;;;13.18;;
37943;SDS011;23767;42.024;23.086;2024-02-26T05:11:13;26.55;;;18.38;;
37943;SDS011;23767;42.024;23.086;2024-02-26T05:13:38;17.83;;;13.05;;
37943;SDS011;23767;42.024;23.086;2024-02-26T05:16:04;34.83;;;24.70;;
37943;SDS011;23767;42.024;23.086;2024-02-26T05:18:30;14.57;;;12.00;;
37943;SDS011;23767;42.024;23.086;2024-02-26T05:20:56;25.98;;;19.33;;
37943;SDS011;23767;42.024;23.086;2024-02-26T05:23:21;27.42;;;21.75;;
37943;SDS011;23767;42.024;23.086;2024-02-26T05:25:48;21.45;;;14.23;;
37943;SDS011;23767;42.024;23.086;2024-02-26T05:28:14;24.08;;;18.98;;
37943;SDS011;23767;42.024;23.086;2024-02-26T05:30:41;18.23;;;12.35;;
37943;SDS011;23767;42.024;23.086;2024-02-26T05:33:07;31.30;;;26.33;;
37943;SDS011;23767;42.024;23.086;2024-02-26T05:35:33;15.68;;;13.30;;
37943;SDS011;23767;42.024;23.086;2024-02-26T05:37:58;12.20;;;9.75;;
37943;SDS011;23767;42.024;23.086;2024-02-26T05:40:24;13.35;;;10.45;;
37943;SDS011;23767;42.024;23.086;2024-02-26T05:42:50;17.27;;;13.35;;
37943;SDS011;23767;42.024;23.086;2024-02-26T05:45:15;16.83;;;11.43;;
37943;SDS011;23767;42.024;23.086;2024-02-26T05:47:41;16.23;;;11.20;;
37943;SDS011;23767;42.024;23.086;2024-02-26T05:50:10;13.10;;;9.05;;
37943;SDS011;23767;42.024;23.086;2024-02-26T05:52:37;15.63;;;11.32;;
37943;SDS011;23767;42.024;23.086;2024-02-26T05:55:06;12.88;;;9.18;;
37943;SDS011;23767;42.024;23.086;2024-02-26T05:57:33;11.38;;;8.65;;
37943;SDS011;23767;42.024;23.086;2024-02-26T05:59:59;13.00;;;8.82;;
37943;SDS011;23767;42.024;23.086;2024-02-26T06:02:29;14.45;;;11.27;;
37943;SDS011;23767;42.024;23.086;2024-02-26T06:04:55;16.13;;;12.88;;
37943;SDS011;23767;42.024;23.086;2024-02-26T06:07:20;16.13;;;12.93;;
37943;SDS011;23767;42.024;23.086;2024-02-26T06:09:46;21.25;;;16.30;;
37943;SDS011;23767;42.024;23.086;2024-02-26T06:12:11;26.20;;;20.48;;
37943;SDS011;23767;42.024;23.086;2024-02-26T06:14:37;29.48;;;21.15;;
37943;SDS011;23767;42.024;23.086;2024-02-26T06:17:03;24.60;;;18.35;;
37943;SDS011;23767;42.024;23.086;2024-02-26T06:19:29;25.63;;;19.23;;
37943;SDS011;23767;42.024;23.086;2024-02-26T06:21:54;22.25;;;17.67;;
37943;SDS011;23767;42.024;23.086;2024-02-26T06:24:20;21.40;;;17.05;;
37943;SDS011;23767;42.024;23.086;2024-02-26T06:26:47;23.52;;;17.70;;
37943;SDS011;23767;42.024;23.086;2024-02-26T06:29:13;21.27;;;17.13;;
37943;SDS011;23767;42.024;23.086;2024-02-26T06:31:39;23.58;;;17.98;;
37943;SDS011;23767;42.024;23.086;2024-02-26T06:34:05;21.98;;;18.98;;
37943;SDS011;23767;42.024;23.086;2024-02-26T06:36:31;27.38;;;21.70;;
37943;SDS011;23767;42.024;23.086;2024-02-26T06:38:57;28.80;;;24.95;;
37943;SDS011;23767;42.024;23.086;2024-02-26T06:41:22;25.40;;;21.15;;
37943;SDS011;23767;42.024;23.086;2024-02-26T06:43:55;22.10;;;18.00;;
37943;SDS011;23767;42.024;23.086;2024-02-26T06:46:22;19.70;;;16.60;;
37943;SDS011;23767;42.024;23.086;2024-02-26T06:48:48;19.85;;;17.40;;
37943;SDS011;23767;42.024;23.086;2024-02-26T06:51:14;20.92;;;16.60;;
37943;SDS011;23767;42.024;23.086;2024-02-26T06:53:40;23.70;;;17.27;;
37943;SDS011;23767;42.024;23.086;2024-02-26T06:56:05;21.45;;;17.67;;
37943;SDS011;23767;42.024;23.086;2024-02-26T06:58:31;24.98;;;18.38;;
37943;SDS011;23767;42.024;23.086;2024-02-26T07:00:57;23.00;;;19.65;;
37943;SDS011;23767;42.024;23.086;2024-02-26T07:03:23;26.75;;;21.98;;
37943;SDS011;23767;42.024;23.086;2024-02-26T07:05:50;25.48;;;22.33;;
37943;SDS011;23767;42.024;23.086;2024-02-26T07:08:16;27.35;;;23.02;;
37943;SDS011;23767;42.024;23.086;2024-02-26T07:10:42;23.95;;;21.33;;
37943;SDS011;23767;42.024;23.086;2024-02-26T07:13:08;25.23;;;22.38;;
37943;SDS011;23767;42.024;23.086;2024-02-26T07:15:34;24.65;;;21.13;;
37943;SDS011;23767;42.024;23.086;2024-02-26T07:18:00;32.70;;;25.08;;
37943;SDS011;23767;42.024;23.086;2024-02-26T07:20:29;27.88;;;22.38;;
37943;SDS011;23767;42.024;23.086;2024-02-26T07:22:56;25.40;;;19.50;;
37943;SDS011;23767;42.024;23.086;2024-02-26T07:25:21;24.95;;;18.75;;
37943;SDS011;23767;42.024;23.086;2024-02-26T07:27:48;21.15;;;17.13;;
37943;SDS011;23767;42.024;23.086;2024-02-26T07:30:13;20.10;;;17.55;;
37943;SDS011;23767;42.024;23.086;2024-02-26T07:32:40;17.48;;;13.27;;
37943;SDS011;23767;42.024;23.086;2024-02-26T07:35:05;17.95;;;13.52;;
37943;SDS011;23767;42.024;23.086;2024-02-26T07:37:31;18.95;;;14.23;;
37943;SDS011;23767;42.024;23.086;2024-02-26T07:39:57;16.85;;;14.43;;
37943;SDS011;23767;42.024;23.086;2024-02-26T07:42:23;21.98;;;17.67;;
37943;SDS011;23767;42.024;23.086;2024-02-26T07:44:48;24.77;;;20.52;;
37943;SDS011;23767;42.024;23.086;2024-02-26T07:47:14;27.27;;;23.02;;
37943;SDS011;23767;42.024;23.086;2024-02-26T07:49:40;25.52;;;22.52;;
37943;SDS011;23767;42.024;23.086;2024-02-26T07:52:06;23.92;;;21.40;;
37943;SDS011;23767;42.024;23.086;2024-02-26T07:54:31;24.30;;;20.35;;
37943;SDS011;23767;42.024;23.086;2024-02-26T07:56:57;27.05;;;20.65;;
37943;SDS011;23767;42.024;23.086;2024-02-26T07:59:23;25.35;;;19.92;;
37943;SDS011;23767;42.024;23.086;2024-02-26T08:01:52;24.10;;;20.42;;
37943;SDS011;23767;42.024;23.086;2024-02-26T08:04:17;26.05;;;21.17;;
37943;SDS011;23767;42.024;23.086;2024-02-26T08:06:43;25.15;;;20.25;;
37943;SDS011;23767;42.024;23.086;2024-02-26T08:09:08;26.00;;;19.60;;
37943;SDS011;23767;42.024;23.086;2024-02-26T08:11:34;22.95;;;18.52;;
37943;SDS011;23767;42.024;23.086;2024-02-26T08:14:00;23.33;;;19.95;;
37943;SDS011;23767;42.024;23.086;2024-02-26T08:16:26;21.90;;;18.50;;
37943;SDS011;23767;42.024;23.086;2024-02-26T08:18:52;22.30;;;17.00;;
37943;SDS011;23767;42.024;23.086;2024-02-26T08:21:18;23.77;;;18.83;;
37943;SDS011;23767;42.024;23.086;2024-02-26T08:23:43;23.52;;;19.35;;
37943;SDS011;23767;42.024;23.086;2024-02-26T08:26:09;21.05;;;17.23;;
37943;SDS011;23767;42.024;23.086;2024-02-26T08:28:39;19.73;;;15.10;;
37943;SDS011;23767;42.024;23.086;2024-02-26T08:31:04;23.35;;;17.25;;
37943;SDS011;23767;42.024;23.086;2024-02-26T08:33:30;21.67;;;16.60;;
37943;SDS011;23767;42.024;23.086;2024-02-26T08:35:56;22.23;;;16.65;;
37943;SDS011;23767;42.024;23.086;2024-02-26T08:38:22;23.75;;;17.10;;
37943;SDS011;23767;42.024;23.086;2024-02-26T08:40:48;23.27;;;18.02;;
37943;SDS011;23767;42.024;23.086;2024-02-26T08:43:14;23.85;;;17.05;;
37943;SDS011;23767;42.024;23.086;2024-02-26T08:45:40;24.27;;;17.17;;
37943;SDS011;23767;42.024;23.086;2024-02-26T08:48:05;23.50;;;17.00;;
37943;SDS011;23767;42.024;23.086;2024-02-26T08:50:32;23.77;;;16.15;;
37943;SDS011;23767;42.024;23.086;2024-02-26T08:52:58;22.27;;;16.90;;
37943;SDS011;23767;42.024;23.086;2024-02-26T08:55:26;24.88;;;16.73;;
37943;SDS011;23767;42.024;23.086;2024-02-26T08:57:51;25.63;;;16.55;;
37943;SDS011;23767;42.024;23.086;2024-02-26T09:00:17;21.02;;;16.92;;
37943;SDS011;23767;42.024;23.086;2024-02-26T09:02:45;22.25;;;16.92;;
37943;SDS011;23767;42.024;23.086;2024-02-26T09:05:12;24.38;;;16.67;;
37943;SDS011;23767;42.024;23.086;2024-02-26T09:07:37;28.13;;;18.50;;
37943;SDS011;23767;42.024;23.086;2024-02-26T09:10:04;28.38;;;16.80;;
37943;SDS011;23767;42.024;23.086;2024-02-26T09:12:30;24.63;;;16.60;;
37943;SDS011;23767;42.024;23.086;2024-02-26T09:14:56;20.73;;;15.73;;
37943;SDS011;23767;42.024;23.086;2024-02-26T09:17:22;24.35;;;15.50;;
37943;SDS011;23767;42.024;23.086;2024-02-26T09:19:48;25.92;;;16.40;;
37943;SDS011;23767;42.024;23.086;2024-02-26T09:22:14;22.20;;;15.70;;
37943;SDS011;23767;42.024;23.086;2024-02-26T09:24:39;25.85;;;16.50;;
37943;SDS011;23767;42.024;23.086;2024-02-26T09:27:05;23.92;;;16.02;;
37943;SDS011;23767;42.024;23.086;2024-02-26T09:29:31;17.45;;;11.77;;
37943;SDS011;23767;42.024;23.086;2024-02-26T09:31:57;26.92;;;17.15;;
37943;SDS011;23767;42.024;23.086;2024-02-26T09:34:23;24.27;;;17.90;;
37943;SDS011;23767;42.024;23.086;2024-02-26T09:36:49;26.88;;;14.55;;
37943;SDS011;23767;42.024;23.086;2024-02-26T09:39:14;12.52;;;7.72;;
37943;SDS011;23767;42.024;23.086;2024-02-26T09:41:45;9.98;;;6.85;;
37943;SDS011;23767;42.024;23.086;2024-02-26T09:44:11;10.20;;;7.20;;
37943;SDS011;23767;42.024;23.086;2024-02-26T09:46:40;13.95;;;7.55;;
37943;SDS011;23767;42.024;23.086;2024-02-26T09:49:06;10.68;;;7.03;;
37943;SDS011;23767;42.024;23.086;2024-02-26T09:51:33;17.63;;;7.28;;
37943;SDS011;23767;42.024;23.086;2024-02-26T09:53:59;10.55;;;6.32;;
37943;SDS011;23767;42.024;23.086;2024-02-26T09:56:26;9.98;;;6.45;;
37943;SDS011;23767;42.024;23.086;2024-02-26T09:58:53;10.88;;;6.35;;
37943;SDS011;23767;42.024;23.086;2024-02-26T10:01:21;9.43;;;6.30;;
37943;SDS011;23767;42.024;23.086;2024-02-26T10:03:51;11.13;;;6.20;;
37943;SDS011;23767;42.024;23.086;2024-02-26T10:06:20;14.23;;;6.75;;
37943;SDS011;23767;42.024;23.086;2024-02-26T10:08:46;9.65;;;5.88;;
37943;SDS011;23767;42.024;23.086;2024-02-26T10:11:13;7.65;;;5.63;;
37943;SDS011;23767;42.024;23.086;2024-02-26T10:13:39;10.10;;;6.45;;
37943;SDS011;23767;42.024;23.086;2024-02-26T10:16:06;12.63;;;5.97;;
37943;SDS011;23767;42.024;23.086;2024-02-26T10:18:45;13.90;;;5.93;;
37943;SDS011;23767;42.024;23.086;2024-02-26T10:21:21;10.88;;;6.47;;
37943;SDS011;23767;42.024;23.086;2024-02-26T10:23:48;11.68;;;6.20;;
37943;SDS011;23767;42.024;23.086;2024-02-26T10:26:15;9.98;;;5.50;;
37943;SDS011;23767;42.024;23.086;2024-02-26T10:28:41;8.65;;;6.20;;
37943;SDS011;23767;42.024;23.086;2024-02-26T10:31:08;9.02;;;5.95;;
37943;SDS011;23767;42.024;23.086;2024-02-26T10:33:37;11.23;;;6.28;;
37943;SDS011;23767;42.024;23.086;2024-02-26T10:36:04;10.82;;;6.57;;
37943;SDS011;23767;42.024;23.086;2024-02-26T10:38:31;9.85;;;6.18;;
37943;SDS011;23767;42.024;23.086;2024-02-26T10:40:57;10.70;;;5.63;;
37943;SDS011;23767;42.024;23.086;2024-02-26T10:43:24;7.75;;;5.43;;
37943;SDS011;23767;42.024;23.086;2024-02-26T10:45:50;7.82;;;5.65;;
37943;SDS011;23767;42.024;23.086;2024-02-26T10:48:16;8.25;;;5.60;;
37943;SDS011;23767;42.024;23.086;2024-02-26T10:50:43;9.40;;;5.65;;
37943;SDS011;23767;42.024;23.086;2024-02-26T10:53:19;7.28;;;4.85;;
37943;SDS011;23767;42.024;23.086;2024-02-26T10:55:48;9.68;;;5.65;;
37943;SDS011;23767;42.024;23.086;2024-02-26T10:58:22;10.25;;;5.40;;
37943;SDS011;23767;42.024;23.086;2024-02-26T11:00:50;13.43;;;9.57;;
37943;SDS011;23767;42.024;23.086;2024-02-26T11:03:17;13.40;;;9.52;;
37943;SDS011;23767;42.024;23.086;2024-02-26T11:05:45;18.08;;;13.63;;
37943;SDS011;23767;42.024;23.086;2024-02-26T11:08:18;19.73;;;15.20;;
37943;SDS011;23767;42.024;23.086;2024-02-26T11:10:47;10.37;;;5.57;;
37943;SDS011;23767;42.024;23.086;2024-02-26T11:13:14;11.55;;;6.40;;
37943;SDS011;23767;42.024;23.086;2024-02-26T11:15:43;9.75;;;5.40;;
37943;SDS011;23767;42.024;23.086;2024-02-26T11:18:12;10.63;;;5.78;;
37943;SDS011;23767;42.024;23.086;2024-02-26T11:20:40;9.48;;;5.78;;
37943;SDS011;23767;42.024;23.086;2024-02-26T11:23:06;12.48;;;5.90;;
37943;SDS011;23767;42.024;23.086;2024-02-26T11:25:33;11.38;;;5.40;;
37943;SDS011;23767;42.024;23.086;2024-02-26T11:28:01;8.07;;;4.75;;
37943;SDS011;23767;42.024;23.086;2024-02-26T11:30:39;8.52;;;4.40;;
37943;SDS011;23767;42.024;23.086;2024-02-26T11:33:08;10.90;;;5.60;;
37943;SDS011;23767;42.024;23.086;2024-02-26T11:35:38;10.05;;;4.60;;
37943;SDS011;23767;42.024;23.086;2024-02-26T11:38:04;10.35;;;4.43;;
37943;SDS011;23767;42.024;23.086;2024-02-26T11:40:32;7.88;;;4.63;;
37943;SDS011;23767;42.024;23.086;2024-02-26T11:43:03;9.98;;;4.57;;
37943;SDS011;23767;42.024;23.086;2024-02-26T11:50:39;9.80;;;3.95;;
37943;SDS011;23767;42.024;23.086;2024-02-26T11:53:22;8.00;;;4.10;;
37943;SDS011;23767;42.024;23.086;2024-02-26T11:58:43;6.65;;;3.75;;
37943;SDS011;23767;42.024;23.086;2024-02-26T12:04:21;8.25;;;4.50;;
37943;SDS011;23767;42.024;23.086;2024-02-26T12:06:58;10.77;;;4.57;;
37943;SDS011;23767;42.024;23.086;2024-02-26T12:09:30;11.43;;;4.25;;
37943;SDS011;23767;42.024;23.086;2024-02-26T12:11:56;7.32;;;4.80;;
37943;SDS011;23767;42.024;23.086;2024-02-26T12:14:25;8.77;;;4.43;;
37943;SDS011;23767;42.024;23.086;2024-02-26T12:16:51;8.13;;;4.20;;
37943;SDS011;23767;42.024;23.086;2024-02-26T12:19:18;11.07;;;4.30;;
37943;SDS011;23767;42.024;23.086;2024-02-26T12:21:43;6.75;;;3.70;;
37943;SDS011;23767;42.024;23.086;2024-02-26T12:24:10;5.80;;;3.65;;
37943;SDS011;23767;42.024;23.086;2024-02-26T12:26:37;10.45;;;3.92;;
37943;SDS011;23767;42.024;23.086;2024-02-26T12:29:04;8.82;;;4.10;;
37943;SDS011;23767;42.024;23.086;2024-02-26T12:31:30;7.20;;;3.95;;
37943;SDS011;23767;42.024;23.086;2024-02-26T12:33:57;8.73;;;4.45;;
37943;SDS011;23767;42.024;23.086;2024-02-26T12:36:23;7.97;;;5.35;;
37943;SDS011;23767;42.024;23.086;2024-02-26T12:38:50;11.90;;;6.60;;
37943;SDS011;23767;42.024;23.086;2024-02-26T12:41:16;8.05;;;3.78;;
37943;SDS011;23767;42.024;23.086;2024-02-26T12:43:42;8.77;;;3.70;;
37943;SDS011;23767;42.024;23.086;2024-02-26T12:46:07;8.25;;;3.97;;
37943;SDS011;23767;42.024;23.086;2024-02-26T12:48:33;6.88;;;3.75;;
37943;SDS011;23767;42.024;23.086;2024-02-26T12:50:59;6.75;;;3.60;;
37943;SDS011;23767;42.024;23.086;2024-02-26T12:53:26;8.65;;;3.88;;
37943;SDS011;23767;42.024;23.086;2024-02-26T12:55:52;9.38;;;3.75;;
37943;SDS011;23767;42.024;23.086;2024-02-26T12:58:21;8.98;;;4.00;;
37943;SDS011;23767;42.024;23.086;2024-02-26T13:00:53;7.67;;;3.93;;
37943;SDS011;23767;42.024;23.086;2024-02-26T13:03:19;7.32;;;3.90;;
37943;SDS011;23767;42.024;23.086;2024-02-26T13:05:47;7.97;;;3.85;;
37943;SDS011;23767;42.024;23.086;2024-02-26T13:08:20;7.95;;;4.25;;
37943;SDS011;23767;42.024;23.086;2024-02-26T13:10:46;9.90;;;4.15;;
37943;SDS011;23767;42.024;23.086;2024-02-26T13:13:15;10.95;;;3.90;;
37943;SDS011;23767;42.024;23.086;2024-02-26T13:15:42;7.40;;;4.20;;
37943;SDS011;23767;42.024;23.086;2024-02-26T13:18:09;7.07;;;3.75;;
37943;SDS011;23767;42.024;23.086;2024-02-26T13:20:36;9.48;;;4.75;;
37943;SDS011;23767;42.024;23.086;2024-02-26T13:23:05;10.27;;;4.68;;
37943;SDS011;23767;42.024;23.086;2024-02-26T13:25:40;8.20;;;4.00;;
37943;SDS011;23767;42.024;23.086;2024-02-26T13:28:09;11.18;;;4.25;;
37943;SDS011;23767;42.024;23.086;2024-02-26T13:30:49;6.68;;;4.18;;
37943;SDS011;23767;42.024;23.086;2024-02-26T13:33:21;10.20;;;4.70;;
37943;SDS011;23767;42.024;23.086;2024-02-26T13:35:48;7.20;;;4.10;;
37943;SDS011;23767;42.024;23.086;2024-02-26T13:38:13;7.45;;;3.72;;
37943;SDS011;23767;42.024;23.086;2024-02-26T13:40:39;11.50;;;5.75;;
37943;SDS011;23767;42.024;23.086;2024-02-26T13:43:05;9.35;;;4.40;;
37943;SDS011;23767;42.024;23.086;2024-02-26T13:45:34;6.85;;;3.58;;
37943;SDS011;23767;42.024;23.086;2024-02-26T13:48:01;10.05;;;3.95;;
37943;SDS011;23767;42.024;23.086;2024-02-26T13:50:28;7.43;;;4.32;;
37943;SDS011;23767;42.024;23.086;2024-02-26T13:52:54;7.40;;;3.85;;
37943;SDS011;23767;42.024;23.086;2024-02-26T13:55:21;10.10;;;4.15;;
37943;SDS011;23767;42.024;23.086;2024-02-26T13:57:49;11.23;;;4.20;;
37943;SDS011;23767;42.024;23.086;2024-02-26T14:00:17;9.27;;;4.13;;
37943;SDS011;23767;42.024;23.086;2024-02-26T14:02:43;7.78;;;3.88;;
37943;SDS011;23767;42.024;23.086;2024-02-26T14:05:08;9.63;;;4.40;;
37943;SDS011;23767;42.024;23.086;2024-02-26T14:07:35;8.65;;;4.47;;
37943;SDS011;23767;42.024;23.086;2024-02-26T14:10:00;11.13;;;4.32;;
37943;SDS011;23767;42.024;23.086;2024-02-26T14:12:26;8.60;;;4.40;;
37943;SDS011;23767;42.024;23.086;2024-02-26T14:14:51;9.27;;;4.60;;
37943;SDS011;23767;42.024;23.086;2024-02-26T14:17:19;7.38;;;4.13;;
37943;SDS011;23767;42.024;23.086;2024-02-26T14:19:44;7.35;;;3.97;;
37943;SDS011;23767;42.024;23.086;2024-02-26T14:22:12;8.05;;;4.45;;
37943;SDS011;23767;42.024;23.086;2024-02-26T14:24:39;6.63;;;4.00;;
37943;SDS011;23767;42.024;23.086;2024-02-26T14:27:05;8.52;;;4.55;;